Time;durP1;ratioP1;P1;durP2;ratioP2;P2;SDS_P1;SDS_P2;PMS_P1;PMS_P2;Temp;Humidity;BMP_temperature;BMP_pressure;BME280_temperature;BME280_humidity;BME280_pressure;Samples;Min_cycle;Max_cycle;Signal;HPM_P1;HPM_P2
2021/08/27 00:00:53;;;;;;;7.13;3.50;;;;;;;;;;2073123;28;20239;-57
2021/08/27 00:01:53;;;;;;;6.13;3.15;;;;;;;;;;2078606;28;20192;-56
2021/08/27 00:02:53;;;;;;;5.40;3.08;;;;;;;;;;2073431;28;20657;-54
2021/08/27 00:03:54;;;;;;;5.90;2.70;;;;;;;;;;2073415;28;20270;-51
2021/08/27 00:04:54;;;;;;;7.13;3.17;;;;;;;;;;2072986;28;20200;-52
2021/08/27 00:05:54;;;;;;;5.22;3.00;;;;;;;;;;2076447;28;20669;-49
2021/08/27 00:06:55;;;;;;;6.07;3.40;;;;;;;;;;2066661;28;20170;-50
2021/08/27 00:07:55;;;;;;;6.53;2.55;;;;;;;;;;2073040;28;20169;-50
2021/08/27 00:08:55;;;;;;;5.20;3.25;;;;;;;;;;2069938;28;20205;-52
2021/08/27 00:09:56;;;;;;;10.75;3.20;;;;;;;;;;2068617;28;20169;-56
2021/08/27 00:10:56;;;;;;;7.22;2.95;;;;;;;;;;2064835;28;20198;-51
2021/08/27 00:11:56;;;;;;;10.80;3.22;;;;;;;;;;2067681;28;20169;-51
2021/08/27 00:12:56;;;;;;;5.57;3.22;;;;;;;;;;2072113;28;20185;-51
2021/08/27 00:13:56;;;;;;;8.02;2.88;;;;;;;;;;2072992;28;20176;-52
2021/08/27 00:14:57;;;;;;;7.47;3.60;;;;;;;;;;2073195;28;20230;-52
2021/08/27 00:15:57;;;;;;;4.00;2.92;;;;;;;;;;2071985;28;20187;-52
2021/08/27 00:16:57;;;;;;;6.97;3.17;;;;;;;;;;2073102;28;20177;-52
2021/08/27 00:17:58;;;;;;;6.80;3.22;;;;;;;;;;2072549;28;20626;-53
2021/08/27 00:18:58;;;;;;;7.65;3.35;;;;;;;;;;2068370;28;20178;-51
2021/08/27 00:19:59;;;;;;;7.10;3.17;;;;;;;;;;2068530;28;20193;-54
2021/08/27 00:20:59;;;;;;;7.65;2.90;;;;;;;;;;2073304;28;20200;-53
2021/08/27 00:21:59;;;;;;;6.43;3.25;;;;;;;;;;2077365;28;20185;-55
2021/08/27 00:23:00;;;;;;;9.90;2.90;;;;;;;;;;2071331;28;20181;-52
2021/08/27 00:24:01;;;;;;;8.25;3.17;;;;;;;;;;2072769;28;20169;-48
2021/08/27 00:25:02;;;;;;;7.65;3.20;;;;;;;;;;2069193;28;20173;-52
2021/08/27 00:26:03;;;;;;;5.30;3.22;;;;;;;;;;2073141;28;20546;-50
2021/08/27 00:27:03;;;;;;;6.68;3.22;;;;;;;;;;2072728;28;20185;-50
2021/08/27 00:28:05;;;;;;;6.35;2.95;;;;;;;;;;2073027;28;20179;-51
2021/08/27 00:29:05;;;;;;;8.45;3.35;;;;;;;;;;2069802;28;20176;-52
2021/08/27 00:30:06;;;;;;;5.30;2.90;;;;;;;;;;2073078;28;20726;-50
2021/08/27 00:31:06;;;;;;;6.93;3.42;;;;;;;;;;2076489;28;20210;-51
2021/08/27 00:32:06;;;;;;;8.57;3.00;;;;;;;;;;2075685;28;20175;-52
2021/08/27 00:33:07;;;;;;;8.60;3.40;;;;;;;;;;2073037;28;20216;-53
2021/08/27 00:34:07;;;;;;;4.80;3.50;;;;;;;;;;2072845;28;20688;-56
2021/08/27 00:35:08;;;;;;;5.03;3.00;;;;;;;;;;2073081;28;20211;-57
2021/08/27 00:36:08;;;;;;;9.05;3.22;;;;;;;;;;2071502;28;20176;-54
2021/08/27 00:37:08;;;;;;;5.65;3.10;;;;;;;;;;2069849;28;20173;-56
2021/08/27 00:38:14;;;;;;;7.43;3.50;;;;;;;;;;2072485;28;20734;-53
2021/08/27 00:39:14;;;;;;;7.82;2.90;;;;;;;;;;2072872;28;20211;-54
2021/08/27 00:40:15;;;;;;;11.25;3.50;;;;;;;;;;2071239;28;20233;-51
2021/08/27 00:41:15;;;;;;;6.55;2.95;;;;;;;;;;2076940;28;20222;-55
2021/08/27 00:42:16;;;;;;;5.65;3.10;;;;;;;;;;2075206;28;20644;-53
2021/08/27 00:43:16;;;;;;;7.65;3.10;;;;;;;;;;2072783;28;20177;-52
2021/08/27 00:44:16;;;;;;;6.97;2.72;;;;;;;;;;2070230;28;20178;-52
2021/08/27 00:45:16;;;;;;;6.68;2.65;;;;;;;;;;2075403;28;20630;-52
2021/08/27 00:46:17;;;;;;;9.13;3.10;;;;;;;;;;2068947;28;20213;-52
2021/08/27 00:47:17;;;;;;;8.50;3.28;;;;;;;;;;2070996;28;20737;-53
2021/08/27 00:48:17;;;;;;;4.07;3.20;;;;;;;;;;2067701;28;20177;-53
2021/08/27 00:49:17;;;;;;;7.85;3.17;;;;;;;;;;2071216;28;20629;-52
2021/08/27 00:50:18;;;;;;;7.35;3.00;;;;;;;;;;2075007;28;20232;-52
2021/08/27 00:51:18;;;;;;;7.45;3.35;;;;;;;;;;2076965;28;20218;-52
2021/08/27 00:52:18;;;;;;;9.35;3.20;;;;;;;;;;2069799;28;20239;-57
2021/08/27 00:53:18;;;;;;;10.02;3.38;;;;;;;;;;2074982;28;20236;-56
2021/08/27 00:54:20;;;;;;;6.93;2.70;;;;;;;;;;2073610;28;20189;-50
2021/08/27 00:55:20;;;;;;;5.55;3.33;;;;;;;;;;2074322;28;20185;-52
2021/08/27 00:56:20;;;;;;;6.65;2.90;;;;;;;;;;2073109;28;20201;-57
2021/08/27 00:57:21;;;;;;;6.47;3.47;;;;;;;;;;2072463;28;20391;-56
2021/08/27 00:58:21;;;;;;;6.60;3.13;;;;;;;;;;2071575;28;20240;-55
2021/08/27 00:59:21;;;;;;;5.38;2.55;;;;;;;;;;2072048;28;20173;-56
2021/08/27 01:00:21;;;;;;;10.38;3.28;;;;;;;;;;2071956;28;20215;-55
2021/08/27 01:01:22;;;;;;;5.07;3.00;;;;;;;;;;2073183;28;20850;-53
2021/08/27 01:02:22;;;;;;;9.00;3.10;;;;;;;;;;2071339;28;20192;-52
2021/08/27 01:03:22;;;;;;;4.95;3.10;;;;;;;;;;2071228;28;20177;-52
2021/08/27 01:04:22;;;;;;;5.75;3.05;;;;;;;;;;2071672;28;20180;-53
2021/08/27 01:05:23;;;;;;;6.18;3.17;;;;;;;;;;2074377;28;20276;-52
2021/08/27 01:06:23;;;;;;;6.22;2.95;;;;;;;;;;2073768;28;20181;-53
2021/08/27 01:07:30;;;;;;;6.55;3.00;;;;;;;;;;2075965;28;20200;-56
2021/08/27 01:08:34;;;;;;;8.13;3.35;;;;;;;;;;2071803;28;20184;-53
2021/08/27 01:09:38;;;;;;;9.23;3.42;;;;;;;;;;2072286;28;20185;-52
2021/08/27 01:10:40;;;;;;;5.40;2.90;;;;;;;;;;2072686;28;20636;-54
2021/08/27 01:11:47;;;;;;;8.85;3.35;;;;;;;;;;2076165;28;20192;-55
2021/08/27 01:12:53;;;;;;;4.57;3.17;;;;;;;;;;2071145;28;20185;-58
2021/08/27 01:14:04;;;;;;;7.18;2.80;;;;;;;;;;2072918;28;20186;-54
2021/08/27 01:15:07;;;;;;;6.70;3.15;;;;;;;;;;2074235;28;20181;-54
2021/08/27 01:16:07;;;;;;;6.38;3.30;;;;;;;;;;2072470;28;20796;-57
2021/08/27 01:17:12;;;;;;;5.40;3.28;;;;;;;;;;2072715;28;20188;-56
2021/08/27 01:18:21;;;;;;;6.07;3.15;;;;;;;;;;2072470;28;20189;-50
2021/08/27 01:19:47;;;;;;;7.65;3.20;;;;;;;;;;2072303;28;20188;-53
2021/08/27 01:21:04;;;;;;;4.45;2.92;;;;;;;;;;2070312;28;20208;-51
2021/08/27 01:22:23;;;;;;;5.38;3.22;;;;;;;;;;2072706;28;20181;-51
2021/08/27 01:23:42;;;;;;;7.47;3.08;;;;;;;;;;2073591;28;20164;-51
2021/08/27 01:24:43;;;;;;;8.10;3.75;;;;;;;;;;2072567;28;20265;-55
2021/08/27 01:25:48;;;;;;;8.38;3.33;;;;;;;;;;2072658;28;20584;-54
2021/08/27 01:26:54;;;;;;;6.55;3.38;;;;;;;;;;2074499;28;20735;-57
2021/08/27 01:27:54;;;;;;;4.57;3.40;;;;;;;;;;2071912;28;20181;-55
2021/08/27 01:28:55;;;;;;;5.75;3.42;;;;;;;;;;2072448;28;20173;-53
2021/08/27 01:30:09;;;;;;;8.77;4.05;;;;;;;;;;2073115;28;20216;-53
2021/08/27 01:31:19;;;;;;;4.88;3.40;;;;;;;;;;2072870;28;20220;-55
2021/08/27 01:32:26;;;;;;;8.63;4.32;;;;;;;;;;2071180;28;20558;-54
2021/08/27 01:33:27;;;;;;;5.80;3.47;;;;;;;;;;2073174;28;20176;-55
2021/08/27 01:34:34;;;;;;;7.63;3.47;;;;;;;;;;2079483;28;20200;-55
2021/08/27 01:35:36;;;;;;;7.05;3.67;;;;;;;;;;2074927;28;20169;-56
2021/08/27 01:36:36;;;;;;;4.43;3.30;;;;;;;;;;2072734;28;20177;-51
2021/08/27 01:37:38;;;;;;;6.22;3.17;;;;;;;;;;2070094;28;20247;-56
2021/08/27 01:38:39;;;;;;;9.07;3.70;;;;;;;;;;2055824;28;20184;-50
2021/08/27 01:39:42;;;;;;;7.88;3.55;;;;;;;;;;2065583;28;20247;-51
2021/08/27 01:40:45;;;;;;;7.25;3.35;;;;;;;;;;2072806;28;20583;-52
2021/08/27 01:41:49;;;;;;;4.55;2.78;;;;;;;;;;2072510;28;20215;-52
2021/08/27 01:42:50;;;;;;;5.53;3.00;;;;;;;;;;2068794;28;20716;-52
2021/08/27 01:43:50;;;;;;;8.32;3.35;;;;;;;;;;2074343;28;20189;-51
2021/08/27 01:44:53;;;;;;;6.20;3.38;;;;;;;;;;2070781;28;20234;-53
2021/08/27 01:45:56;;;;;;;4.00;3.10;;;;;;;;;;2072390;28;20610;-52
2021/08/27 01:46:58;;;;;;;5.20;3.58;;;;;;;;;;2073788;28;20553;-51
2021/08/27 01:47:59;;;;;;;5.20;3.53;;;;;;;;;;2071761;28;20648;-51
2021/08/27 01:49:00;;;;;;;6.00;3.20;;;;;;;;;;2071852;28;20168;-56
2021/08/27 01:50:00;;;;;;;6.53;3.40;;;;;;;;;;2073069;28;20177;-54
2021/08/27 01:51:02;;;;;;;7.07;3.00;;;;;;;;;;2071481;28;20701;-50
2021/08/27 01:52:05;;;;;;;7.28;3.55;;;;;;;;;;2074720;28;20866;-51
2021/08/27 01:53:05;;;;;;;8.00;3.15;;;;;;;;;;2072406;28;20176;-52
2021/08/27 01:54:06;;;;;;;7.13;3.42;;;;;;;;;;2073438;28;20694;-56
2021/08/27 01:55:07;;;;;;;3.50;2.95;;;;;;;;;;2072372;28;20621;-52
2021/08/27 01:56:09;;;;;;;5.82;3.30;;;;;;;;;;2072544;28;20173;-54
2021/08/27 01:57:10;;;;;;;7.18;3.38;;;;;;;;;;2072414;28;20649;-51
2021/08/27 01:58:11;;;;;;;7.05;3.55;;;;;;;;;;2071411;28;20204;-56
2021/08/27 01:59:12;;;;;;;4.25;3.08;;;;;;;;;;2065339;28;20634;-51
2021/08/27 02:00:12;;;;;;;5.80;3.38;;;;;;;;;;2065930;28;20558;-54
2021/08/27 02:01:13;;;;;;;5.97;3.42;;;;;;;;;;2066724;28;20189;-51
2021/08/27 02:02:15;;;;;;;8.25;3.70;;;;;;;;;;2071849;28;20172;-53
2021/08/27 02:03:16;;;;;;;8.30;3.58;;;;;;;;;;2072674;28;20238;-52
2021/08/27 02:04:17;;;;;;;9.02;3.85;;;;;;;;;;2072441;28;20598;-52
2021/08/27 02:05:18;;;;;;;8.63;3.88;;;;;;;;;;2072767;28;20183;-51
2021/08/27 02:06:19;;;;;;;8.30;3.63;;;;;;;;;;2076583;28;20222;-51
2021/08/27 02:07:19;;;;;;;7.10;3.58;;;;;;;;;;2072730;28;20188;-52
2021/08/27 02:08:20;;;;;;;9.40;3.28;;;;;;;;;;2071688;28;20188;-50
2021/08/27 02:09:21;;;;;;;5.63;3.28;;;;;;;;;;2071680;28;20169;-55
2021/08/27 02:10:22;;;;;;;5.55;3.00;;;;;;;;;;2071972;28;20175;-51
2021/08/27 02:11:22;;;;;;;3.42;2.78;;;;;;;;;;2065849;28;20205;-52
2021/08/27 02:12:23;;;;;;;3.65;2.40;;;;;;;;;;2072205;28;20200;-50
2021/08/27 02:13:24;;;;;;;5.40;2.65;;;;;;;;;;2069384;28;20706;-53
2021/08/27 02:14:25;;;;;;;5.15;3.00;;;;;;;;;;2078556;28;20187;-55
2021/08/27 02:15:26;;;;;;;3.28;2.78;;;;;;;;;;2074419;28;20259;-54
2021/08/27 02:16:27;;;;;;;5.22;2.40;;;;;;;;;;2074913;28;20272;-51
2021/08/27 02:17:28;;;;;;;3.97;2.50;;;;;;;;;;2072289;28;20524;-54
2021/08/27 02:18:29;;;;;;;4.95;2.80;;;;;;;;;;2072291;28;20232;-52
2021/08/27 02:19:29;;;;;;;3.40;2.33;;;;;;;;;;2073644;28;20176;-53
2021/08/27 02:20:29;;;;;;;4.65;2.55;;;;;;;;;;2074103;28;20173;-54
2021/08/27 02:21:32;;;;;;;6.22;2.97;;;;;;;;;;2067484;28;20665;-53
2021/08/27 02:22:32;;;;;;;3.80;3.13;;;;;;;;;;2065561;28;20220;-51
2021/08/27 02:23:34;;;;;;;4.90;2.97;;;;;;;;;;2067664;28;20245;-56
2021/08/27 02:24:37;;;;;;;6.85;3.05;;;;;;;;;;2070847;28;20185;-50
2021/08/27 02:25:39;;;;;;;7.07;3.20;;;;;;;;;;2072317;28;20172;-51
2021/08/27 02:26:44;;;;;;;6.47;3.70;;;;;;;;;;2075423;28;20545;-53
2021/08/27 02:27:45;;;;;;;4.85;3.58;;;;;;;;;;2075445;28;20177;-52
2021/08/27 02:28:47;;;;;;;7.28;3.70;;;;;;;;;;2072057;28;20161;-53
2021/08/27 02:29:48;;;;;;;5.05;3.30;;;;;;;;;;2074130;28;20184;-50
2021/08/27 02:30:49;;;;;;;10.32;3.65;;;;;;;;;;2077859;28;20193;-51
2021/08/27 02:31:51;;;;;;;4.93;3.30;;;;;;;;;;2073956;28;20176;-50
2021/08/27 02:32:51;;;;;;;8.32;3.42;;;;;;;;;;2072636;28;20196;-54
2021/08/27 02:33:52;;;;;;;6.10;3.00;;;;;;;;;;2072903;28;20165;-51
2021/08/27 02:34:57;;;;;;;7.70;3.65;;;;;;;;;;2073612;28;20187;-52
2021/08/27 02:35:58;;;;;;;6.88;3.30;;;;;;;;;;2073157;28;20180;-51
2021/08/27 02:36:59;;;;;;;5.95;3.53;;;;;;;;;;2071611;28;20517;-51
2021/08/27 02:38:00;;;;;;;6.90;3.72;;;;;;;;;;2074692;28;20187;-53
2021/08/27 02:39:01;;;;;;;7.18;3.78;;;;;;;;;;2073745;28;20244;-56
2021/08/27 02:40:02;;;;;;;6.75;3.60;;;;;;;;;;2073842;28;20616;-51
2021/08/27 02:41:03;;;;;;;6.78;3.78;;;;;;;;;;2073422;28;20205;-52
2021/08/27 02:42:03;;;;;;;4.78;3.40;;;;;;;;;;2074344;28;20187;-52
2021/08/27 02:43:03;;;;;;;5.22;3.22;;;;;;;;;;2069651;28;20180;-52
2021/08/27 02:44:04;;;;;;;6.10;3.58;;;;;;;;;;2072969;28;20173;-51
2021/08/27 02:45:07;;;;;;;5.38;3.25;;;;;;;;;;2071401;28;20661;-53
2021/08/27 02:46:07;;;;;;;5.95;3.55;;;;;;;;;;2075422;28;20185;-56
2021/08/27 02:47:07;;;;;;;8.65;4.00;;;;;;;;;;2074059;28;20168;-54
2021/08/27 02:48:08;;;;;;;5.78;4.20;;;;;;;;;;2071497;28;20204;-54
2021/08/27 02:49:08;;;;;;;8.02;3.58;;;;;;;;;;2065925;28;20173;-53
2021/08/27 02:50:09;;;;;;;9.10;4.13;;;;;;;;;;2062424;28;20903;-55
2021/08/27 02:51:22;;;;;;;5.82;3.88;;;;;;;;;;2075963;28;20220;-50
2021/08/27 02:52:34;;;;;;;4.93;3.63;;;;;;;;;;2069865;28;20181;-53
2021/08/27 02:53:35;;;;;;;5.35;3.65;;;;;;;;;;2065877;28;20627;-50
2021/08/27 02:54:41;;;;;;;10.75;4.05;;;;;;;;;;2073419;28;20192;-54
2021/08/27 02:55:43;;;;;;;9.38;3.90;;;;;;;;;;2073323;28;20169;-50
2021/08/27 02:56:45;;;;;;;8.13;4.00;;;;;;;;;;2068019;28;20195;-56
2021/08/27 02:57:50;;;;;;;7.97;4.25;;;;;;;;;;2073211;28;20700;-51
2021/08/27 02:58:51;;;;;;;8.13;4.75;;;;;;;;;;2071652;28;20184;-55
2021/08/27 02:59:52;;;;;;;9.13;4.93;;;;;;;;;;2077706;28;20180;-53
2021/08/27 03:00:57;;;;;;;7.50;4.18;;;;;;;;;;2079114;28;20193;-54
2021/08/27 03:01:58;;;;;;;8.35;4.10;;;;;;;;;;2076528;28;20248;-55
2021/08/27 03:03:00;;;;;;;8.05;4.00;;;;;;;;;;2074954;28;20165;-55
2021/08/27 03:04:12;;;;;;;8.57;4.07;;;;;;;;;;2073804;28;20228;-53
2021/08/27 03:05:16;;;;;;;6.93;3.58;;;;;;;;;;2074201;28;20161;-53
2021/08/27 03:06:22;;;;;;;5.57;3.75;;;;;;;;;;2073027;28;20217;-53
2021/08/27 03:07:24;;;;;;;9.25;4.60;;;;;;;;;;2067202;28;20255;-55
2021/08/27 03:08:25;;;;;;;6.07;4.40;;;;;;;;;;2081445;28;20250;-52
2021/08/27 03:09:27;;;;;;;9.10;4.72;;;;;;;;;;2079355;28;20637;-51
2021/08/27 03:10:29;;;;;;;10.82;4.10;;;;;;;;;;2074489;28;20531;-51
2021/08/27 03:11:31;;;;;;;6.97;4.53;;;;;;;;;;2073709;28;20183;-51
2021/08/27 03:12:52;;;;;;;7.10;4.68;;;;;;;;;;2059672;28;20741;-52
2021/08/27 03:14:00;;;;;;;11.73;3.92;;;;;;;;;;2072989;28;20169;-56
2021/08/27 03:15:01;;;;;;;9.48;4.05;;;;;;;;;;2076070;28;20220;-52
2021/08/27 03:16:03;;;;;;;10.73;4.45;;;;;;;;;;2074255;28;20817;-53
2021/08/27 03:17:05;;;;;;;8.55;4.38;;;;;;;;;;2077203;28;20185;-50
2021/08/27 03:18:31;;;;;;;8.80;4.07;;;;;;;;;;2072780;28;20219;-53
2021/08/27 03:19:39;;;;;;;4.78;3.85;;;;;;;;;;2046781;28;20203;-56
2021/08/27 03:20:45;;;;;;;7.93;4.00;;;;;;;;;;2076885;28;20874;-57
2021/08/27 03:21:45;;;;;;;7.70;4.05;;;;;;;;;;2074569;28;20196;-57
2021/08/27 03:22:51;;;;;;;7.35;4.05;;;;;;;;;;2074641;28;20180;-52
2021/08/27 03:23:52;;;;;;;7.30;4.05;;;;;;;;;;2074223;28;20195;-56
2021/08/27 03:25:12;;;;;;;9.77;4.18;;;;;;;;;;2070214;28;20165;-51
2021/08/27 03:26:15;;;;;;;10.23;4.30;;;;;;;;;;2076430;28;20157;-51
2021/08/27 03:27:18;;;;;;;9.13;4.53;;;;;;;;;;2073453;28;20189;-54
2021/08/27 03:28:21;;;;;;;6.10;4.05;;;;;;;;;;2073679;28;20177;-53
2021/08/27 03:29:22;;;;;;;6.35;3.78;;;;;;;;;;2074283;28;20161;-55
2021/08/27 03:30:23;;;;;;;5.70;3.95;;;;;;;;;;2073444;28;20227;-57
2021/08/27 03:31:24;;;;;;;6.28;3.80;;;;;;;;;;2074047;28;20200;-57
2021/08/27 03:32:24;;;;;;;4.60;3.63;;;;;;;;;;2063413;28;20185;-51
2021/08/27 03:33:25;;;;;;;9.70;4.35;;;;;;;;;;2070610;28;20161;-53
2021/08/27 03:34:25;;;;;;;7.70;4.18;;;;;;;;;;2071579;28;20185;-53
2021/08/27 03:35:26;;;;;;;6.60;4.07;;;;;;;;;;2074541;28;20161;-56
2021/08/27 03:36:27;;;;;;;9.23;4.20;;;;;;;;;;2065061;28;20236;-52
2021/08/27 03:37:28;;;;;;;5.85;3.92;;;;;;;;;;2073427;28;20169;-51
2021/08/27 03:38:28;;;;;;;5.25;3.80;;;;;;;;;;2068339;28;20539;-52
2021/08/27 03:39:30;;;;;;;6.18;3.72;;;;;;;;;;2073064;28;20180;-53
2021/08/27 03:40:31;;;;;;;8.85;3.42;;;;;;;;;;2077105;28;20176;-53
2021/08/27 03:41:34;;;;;;;5.00;3.08;;;;;;;;;;2066063;28;20228;-51
2021/08/27 03:42:35;;;;;;;4.25;3.85;;;;;;;;;;2067739;28;20174;-52
2021/08/27 03:43:38;;;;;;;5.88;3.58;;;;;;;;;;2073972;28;20653;-51
2021/08/27 03:44:40;;;;;;;5.20;3.58;;;;;;;;;;2066030;28;20189;-54
2021/08/27 03:45:40;;;;;;;7.93;4.13;;;;;;;;;;2076584;28;20180;-53
2021/08/27 03:46:40;;;;;;;6.55;3.60;;;;;;;;;;2068421;28;20602;-55
2021/08/27 03:47:42;;;;;;;6.15;3.78;;;;;;;;;;2071962;28;20181;-55
2021/08/27 03:48:44;;;;;;;8.20;3.97;;;;;;;;;;2072189;28;20180;-56
2021/08/27 03:49:47;;;;;;;7.40;4.30;;;;;;;;;;2072758;28;20195;-51
2021/08/27 03:50:48;;;;;;;7.55;4.07;;;;;;;;;;2073778;28;20250;-54
2021/08/27 03:51:49;;;;;;;7.07;4.05;;;;;;;;;;2072528;28;20741;-52
2021/08/27 03:52:50;;;;;;;8.30;4.15;;;;;;;;;;2078808;28;20234;-51
2021/08/27 03:53:52;;;;;;;5.53;4.53;;;;;;;;;;2072644;28;20197;-53
2021/08/27 03:54:52;;;;;;;10.10;4.72;;;;;;;;;;2072357;28;20173;-51
2021/08/27 03:55:53;;;;;;;6.65;4.85;;;;;;;;;;2067517;28;20665;-50
2021/08/27 03:56:54;;;;;;;10.57;4.60;;;;;;;;;;2069501;28;20247;-51
2021/08/27 03:57:55;;;;;;;7.13;3.95;;;;;;;;;;2072064;28;20295;-49
2021/08/27 03:58:56;;;;;;;7.93;4.25;;;;;;;;;;2073520;28;20530;-53
2021/08/27 03:59:57;;;;;;;10.65;5.07;;;;;;;;;;2072809;28;20188;-52
2021/08/27 04:00:57;;;;;;;7.53;4.18;;;;;;;;;;2073449;28;20200;-51
2021/08/27 04:01:58;;;;;;;5.93;3.67;;;;;;;;;;2072957;28;20161;-51
2021/08/27 04:02:58;;;;;;;7.80;3.65;;;;;;;;;;2073484;28;20172;-53
2021/08/27 04:03:58;;;;;;;8.93;4.00;;;;;;;;;;2073608;28;20200;-51
2021/08/27 04:05:12;;;;;;;8.27;4.28;;;;;;;;;;2068864;28;20235;-51
2021/08/27 04:06:13;;;;;;;9.05;4.65;;;;;;;;;;2076823;28;20198;-55
2021/08/27 04:07:13;;;;;;;8.98;4.65;;;;;;;;;;2074699;28;20255;-52
2021/08/27 04:08:13;;;;;;;8.23;4.63;;;;;;;;;;2071426;28;20646;-52
2021/08/27 04:09:13;;;;;;;7.15;4.72;;;;;;;;;;2072799;28;20184;-50
2021/08/27 04:10:15;;;;;;;6.15;4.32;;;;;;;;;;2072176;28;20263;-54
2021/08/27 04:11:17;;;;;;;7.15;3.60;;;;;;;;;;2068108;28;20281;-51
2021/08/27 04:12:17;;;;;;;7.43;4.15;;;;;;;;;;2073341;28;20570;-54
2021/08/27 04:13:18;;;;;;;8.18;4.78;;;;;;;;;;2065673;28;20264;-56
2021/08/27 04:14:18;;;;;;;6.43;4.53;;;;;;;;;;2073262;28;20646;-49
2021/08/27 04:15:22;;;;;;;6.90;4.07;;;;;;;;;;2072312;28;20655;-57
2021/08/27 04:16:22;;;;;;;10.25;4.38;;;;;;;;;;2073832;28;20168;-55
2021/08/27 04:17:23;;;;;;;7.15;3.92;;;;;;;;;;2074969;28;20897;-55
2021/08/27 04:18:23;;;;;;;12.18;4.32;;;;;;;;;;2067222;28;20300;-53
2021/08/27 04:19:23;;;;;;;7.28;4.05;;;;;;;;;;2073120;28;20252;-52
2021/08/27 04:20:24;;;;;;;8.23;4.55;;;;;;;;;;2072193;28;20223;-52
2021/08/27 04:21:24;;;;;;;8.40;3.88;;;;;;;;;;2065392;28;20236;-51
2021/08/27 04:22:24;;;;;;;6.13;3.95;;;;;;;;;;2071744;28;20295;-55
2021/08/27 04:23:24;;;;;;;6.45;3.95;;;;;;;;;;2073303;28;20172;-53
2021/08/27 04:24:25;;;;;;;9.48;4.70;;;;;;;;;;2071855;28;20181;-54
2021/08/27 04:25:25;;;;;;;9.25;4.40;;;;;;;;;;2068834;28;20292;-53
2021/08/27 04:26:26;;;;;;;7.00;4.53;;;;;;;;;;2064559;28;20177;-50
2021/08/27 04:27:26;;;;;;;8.18;4.18;;;;;;;;;;2071938;28;20244;-53
2021/08/27 04:28:26;;;;;;;7.60;3.60;;;;;;;;;;2072081;28;20176;-52
2021/08/27 04:29:26;;;;;;;8.20;3.83;;;;;;;;;;2071883;28;20585;-52
2021/08/27 04:30:27;;;;;;;9.23;4.15;;;;;;;;;;2073415;28;20526;-53
2021/08/27 04:31:27;;;;;;;6.90;4.20;;;;;;;;;;2077820;28;20214;-50
2021/08/27 04:32:27;;;;;;;4.38;3.97;;;;;;;;;;2076698;28;20648;-55
2021/08/27 04:33:28;;;;;;;5.90;3.70;;;;;;;;;;2075879;28;20632;-54
2021/08/27 04:34:28;;;;;;;5.32;3.83;;;;;;;;;;2070841;28;20518;-55
2021/08/27 04:35:29;;;;;;;5.43;3.95;;;;;;;;;;2072314;28;20186;-53
2021/08/27 04:36:29;;;;;;;4.93;3.47;;;;;;;;;;2072146;28;20272;-52
2021/08/27 04:37:29;;;;;;;7.38;3.92;;;;;;;;;;2080556;28;20207;-53
2021/08/27 04:38:29;;;;;;;9.85;3.90;;;;;;;;;;2076272;28;20219;-50
2021/08/27 04:39:30;;;;;;;7.70;3.92;;;;;;;;;;2072214;28;20842;-56
2021/08/27 04:40:30;;;;;;;10.02;4.55;;;;;;;;;;2072610;28;20276;-50
2021/08/27 04:41:30;;;;;;;6.55;3.70;;;;;;;;;;2071889;28;20196;-56
2021/08/27 04:42:30;;;;;;;12.60;3.97;;;;;;;;;;2072238;28;20227;-54
2021/08/27 04:43:31;;;;;;;3.88;3.42;;;;;;;;;;2075148;28;20180;-50
2021/08/27 04:44:31;;;;;;;8.05;4.25;;;;;;;;;;2074628;28;20176;-51
2021/08/27 04:45:32;;;;;;;8.68;4.28;;;;;;;;;;2072915;28;20180;-53
2021/08/27 04:46:32;;;;;;;10.50;4.30;;;;;;;;;;2071046;28;20263;-53
2021/08/27 04:47:32;;;;;;;9.30;4.15;;;;;;;;;;2072512;28;20173;-55
2021/08/27 04:48:33;;;;;;;4.82;4.03;;;;;;;;;;2072606;28;20192;-56
2021/08/27 04:49:33;;;;;;;7.00;3.70;;;;;;;;;;2072173;28;20169;-52
2021/08/27 04:50:33;;;;;;;9.80;4.30;;;;;;;;;;2071486;28;20667;-53
2021/08/27 04:51:33;;;;;;;11.00;4.05;;;;;;;;;;2091021;23;20224;-53
2021/08/27 04:52:33;;;;;;;4.72;3.92;;;;;;;;;;2088248;28;20188;-51
2021/08/27 04:53:34;;;;;;;12.98;4.20;;;;;;;;;;2088890;28;20171;-52
2021/08/27 04:54:34;;;;;;;7.30;4.45;;;;;;;;;;2089259;28;20644;-51
2021/08/27 04:55:34;;;;;;;8.30;4.13;;;;;;;;;;2088324;28;20192;-52
2021/08/27 04:56:35;;;;;;;7.38;4.28;;;;;;;;;;2088473;28;20174;-50
2021/08/27 04:57:39;;;;;;;6.20;3.72;;;;;;;;;;2088507;28;20183;-54
2021/08/27 04:58:39;;;;;;;6.50;4.38;;;;;;;;;;2087167;28;20191;-54
2021/08/27 04:59:43;;;;;;;5.63;3.80;;;;;;;;;;2080813;28;20208;-52
2021/08/27 05:00:43;;;;;;;6.22;3.90;;;;;;;;;;2080385;28;20672;-57
2021/08/27 05:01:43;;;;;;;4.63;3.50;;;;;;;;;;2089452;28;20211;-54
2021/08/27 05:02:43;;;;;;;7.43;4.00;;;;;;;;;;2089207;28;20619;-53
2021/08/27 05:03:44;;;;;;;6.75;4.00;;;;;;;;;;2089999;28;20170;-56
2021/08/27 05:04:44;;;;;;;6.57;3.97;;;;;;;;;;2080360;28;20241;-54
2021/08/27 05:05:45;;;;;;;7.07;3.78;;;;;;;;;;2080646;28;20168;-57
2021/08/27 05:06:45;;;;;;;8.93;3.78;;;;;;;;;;2089528;28;20276;-56
2021/08/27 05:07:45;;;;;;;8.55;3.33;;;;;;;;;;2082106;28;20188;-54
2021/08/27 05:08:46;;;;;;;9.15;3.92;;;;;;;;;;2078783;28;20280;-54
2021/08/27 05:09:46;;;;;;;6.30;4.00;;;;;;;;;;2090272;28;20175;-55
2021/08/27 05:10:46;;;;;;;13.25;4.13;;;;;;;;;;2089745;28;20669;-52
2021/08/27 05:11:47;;;;;;;6.85;3.50;;;;;;;;;;2089427;28;20215;-52
2021/08/27 05:12:47;;;;;;;9.07;3.70;;;;;;;;;;2088415;28;20223;-52
2021/08/27 05:13:47;;;;;;;7.53;3.85;;;;;;;;;;2087256;28;20181;-54
2021/08/27 05:14:47;;;;;;;8.15;3.72;;;;;;;;;;2088307;28;20186;-51
2021/08/27 05:15:48;;;;;;;6.70;3.72;;;;;;;;;;2093769;28;20205;-54
2021/08/27 05:16:48;;;;;;;6.88;4.50;;;;;;;;;;2088172;28;20180;-55
2021/08/27 05:17:48;;;;;;;10.32;3.65;;;;;;;;;;2088167;28;20222;-52
2021/08/27 05:18:49;;;;;;;8.80;4.60;;;;;;;;;;2090152;28;20167;-51
2021/08/27 05:19:49;;;;;;;7.10;4.40;;;;;;;;;;2089121;28;20642;-56
2021/08/27 05:20:49;;;;;;;6.75;3.83;;;;;;;;;;2094555;28;20166;-54
2021/08/27 05:21:50;;;;;;;7.32;4.25;;;;;;;;;;2088524;28;20199;-54
2021/08/27 05:22:50;;;;;;;7.50;3.92;;;;;;;;;;2094491;28;20229;-55
2021/08/27 05:23:50;;;;;;;5.78;4.03;;;;;;;;;;2086951;28;20274;-51
2021/08/27 05:24:51;;;;;;;7.00;3.97;;;;;;;;;;2079155;28;20225;-52
2021/08/27 05:25:52;;;;;;;7.85;4.40;;;;;;;;;;2075790;28;20172;-56
2021/08/27 05:26:54;;;;;;;7.93;4.05;;;;;;;;;;2092689;28;20175;-56
2021/08/27 05:27:54;;;;;;;7.82;4.35;;;;;;;;;;2088645;28;20179;-50
2021/08/27 05:28:55;;;;;;;9.00;4.75;;;;;;;;;;2088506;28;20171;-53
2021/08/27 05:29:55;;;;;;;8.93;4.53;;;;;;;;;;2088859;28;20175;-52
2021/08/27 05:30:55;;;;;;;6.63;3.80;;;;;;;;;;2091949;28;20183;-53
2021/08/27 05:31:55;;;;;;;8.05;3.67;;;;;;;;;;2089155;28;20218;-54
2021/08/27 05:32:56;;;;;;;5.63;3.88;;;;;;;;;;2093984;28;20167;-55
2021/08/27 05:33:56;;;;;;;5.82;3.80;;;;;;;;;;2089574;28;20315;-56
2021/08/27 05:34:57;;;;;;;5.80;4.05;;;;;;;;;;2088272;28;20262;-56
2021/08/27 05:35:57;;;;;;;3.95;3.50;;;;;;;;;;2087528;28;20540;-51
2021/08/27 05:36:57;;;;;;;5.55;3.50;;;;;;;;;;2088605;28;20496;-55
2021/08/27 05:37:57;;;;;;;5.97;3.45;;;;;;;;;;2084761;28;20184;-56
2021/08/27 05:38:58;;;;;;;8.55;3.50;;;;;;;;;;2092792;28;20172;-54
2021/08/27 05:39:58;;;;;;;6.40;3.38;;;;;;;;;;2089374;28;20183;-57
2021/08/27 05:40:58;;;;;;;5.10;3.35;;;;;;;;;;2093145;28;20245;-54
2021/08/27 05:41:59;;;;;;;4.82;3.47;;;;;;;;;;2089359;28;20213;-58
2021/08/27 05:42:59;;;;;;;6.68;3.60;;;;;;;;;;2097707;28;20175;-46
2021/08/27 05:43:59;;;;;;;6.03;3.30;;;;;;;;;;2089231;28;20178;-55
2021/08/27 05:45:00;;;;;;;5.30;3.70;;;;;;;;;;2092756;28;20179;-53
2021/08/27 05:46:01;;;;;;;7.15;3.17;;;;;;;;;;2088119;28;20213;-57
2021/08/27 05:47:01;;;;;;;4.22;3.67;;;;;;;;;;2090256;28;20365;-54
2021/08/27 05:48:01;;;;;;;5.93;3.45;;;;;;;;;;2088042;28;20179;-56
2021/08/27 05:49:02;;;;;;;8.93;3.70;;;;;;;;;;2086441;28;20171;-55
2021/08/27 05:50:02;;;;;;;4.93;3.22;;;;;;;;;;2087412;28;20203;-57
2021/08/27 05:51:03;;;;;;;6.13;3.40;;;;;;;;;;2090057;28;20172;-53
2021/08/27 05:52:03;;;;;;;5.82;3.33;;;;;;;;;;2088838;28;20222;-54
2021/08/27 05:53:03;;;;;;;5.30;3.15;;;;;;;;;;2085403;28;20227;-49
2021/08/27 05:54:04;;;;;;;7.13;3.42;;;;;;;;;;2088025;28;20538;-56
2021/08/27 05:55:04;;;;;;;5.07;3.10;;;;;;;;;;2089843;28;20228;-56
2021/08/27 05:56:04;;;;;;;6.75;3.75;;;;;;;;;;2089389;28;20160;-55
2021/08/27 05:57:05;;;;;;;5.10;3.45;;;;;;;;;;2083391;28;20175;-52
2021/08/27 05:58:05;;;;;;;5.63;2.75;;;;;;;;;;2080600;28;20184;-52
2021/08/27 05:59:05;;;;;;;5.53;3.55;;;;;;;;;;2079587;28;20255;-56
2021/08/27 06:00:06;;;;;;;5.07;3.20;;;;;;;;;;2078201;28;20325;-56
2021/08/27 06:01:07;;;;;;;8.25;3.50;;;;;;;;;;2083281;28;20180;-58
2021/08/27 06:02:07;;;;;;;7.30;3.40;;;;;;;;;;2084540;28;20260;-56
2021/08/27 06:03:07;;;;;;;6.93;3.30;;;;;;;;;;2085893;28;20171;-57
2021/08/27 06:04:08;;;;;;;5.47;2.97;;;;;;;;;;2082320;28;20180;-55
2021/08/27 06:05:08;;;;;;;9.55;3.70;;;;;;;;;;2085109;28;20167;-55
2021/08/27 06:06:08;;;;;;;5.25;3.08;;;;;;;;;;2084447;28;20179;-54
2021/08/27 06:07:09;;;;;;;9.10;3.80;;;;;;;;;;2084728;28;20522;-55
2021/08/27 06:08:09;;;;;;;7.68;3.35;;;;;;;;;;2087453;28;20182;-55
2021/08/27 06:09:09;;;;;;;3.10;2.78;;;;;;;;;;2087646;28;20222;-58
2021/08/27 06:10:11;;;;;;;6.57;3.13;;;;;;;;;;2088285;28;20167;-57